createdAt,value
2018-07-22T00:02:01.252Z,19.17
2018-07-22T00:04:29.335Z,19.07
2018-07-22T00:06:57.465Z,19.08
2018-07-22T00:09:25.544Z,19.17
2018-07-22T00:11:53.752Z,19.18
2018-07-22T00:14:21.827Z,19.01
2018-07-22T00:16:49.907Z,18.95
2018-07-22T00:19:18.012Z,19.07
2018-07-22T00:21:46.107Z,18.93
2018-07-22T00:24:14.219Z,18.78
2018-07-22T00:26:48.223Z,18.74
2018-07-22T00:29:16.364Z,18.70
2018-07-22T00:31:44.451Z,18.71
2018-07-22T00:34:12.535Z,18.73
2018-07-22T00:36:40.647Z,18.76
2018-07-22T00:39:10.186Z,18.85
2018-07-22T00:41:38.283Z,18.86
2018-07-22T00:44:06.346Z,18.80
2018-07-22T00:46:34.451Z,18.77
2018-07-22T00:49:02.594Z,18.84
2018-07-22T00:51:30.708Z,18.82
2018-07-22T00:53:58.816Z,18.83
2018-07-22T00:56:26.906Z,18.69
2018-07-22T00:58:54.988Z,18.60
2018-07-22T01:01:23.075Z,18.49
2018-07-22T01:03:51.354Z,18.61
2018-07-22T01:06:19.417Z,18.64
2018-07-22T01:08:47.510Z,18.66
2018-07-22T01:11:15.593Z,18.62
2018-07-22T01:13:43.723Z,18.43
2018-07-22T01:16:11.804Z,18.49
2018-07-22T01:18:40.241Z,18.47
2018-07-22T01:21:08.325Z,18.56
2018-07-22T01:23:36.423Z,18.52
2018-07-22T01:26:04.525Z,18.49
2018-07-22T01:28:32.607Z,18.41
2018-07-22T01:31:00.670Z,18.55
2018-07-22T01:33:28.743Z,18.44
2018-07-22T01:35:56.830Z,18.55
2018-07-22T01:38:25.134Z,18.53
2018-07-22T01:40:53.360Z,18.53
2018-07-22T01:43:21.610Z,18.44
2018-07-22T01:45:49.662Z,18.51
2018-07-22T01:48:17.762Z,18.40
2018-07-22T01:50:45.841Z,18.28
2018-07-22T01:53:13.938Z,18.31
2018-07-22T01:55:42.019Z,18.28
2018-07-22T01:58:10.145Z,18.30
2018-07-22T02:00:38.227Z,18.16
2018-07-22T02:03:06.327Z,18.18
2018-07-22T02:05:34.414Z,18.08
2018-07-22T02:08:02.501Z,18.11
2018-07-22T02:10:30.588Z,18.24
2018-07-22T02:12:58.646Z,18.16
2018-07-22T02:15:26.755Z,18.10
2018-07-22T02:17:54.932Z,18.07
2018-07-22T02:20:23.265Z,18.07
2018-07-22T02:22:51.398Z,18.03
2018-07-22T02:25:19.502Z,18.05
2018-07-22T02:27:47.596Z,18.03
2018-07-22T02:30:15.675Z,18.10
2018-07-22T02:32:43.774Z,18.03
2018-07-22T02:35:11.866Z,18.06
2018-07-22T02:37:40.027Z,17.99
2018-07-22T02:40:08.265Z,18.02
2018-07-22T02:42:36.353Z,17.99
2018-07-22T02:45:04.434Z,18.03
2018-07-22T02:47:32.516Z,17.87
2018-07-22T02:50:00.643Z,17.65
2018-07-22T02:52:28.718Z,17.68
2018-07-22T02:54:56.835Z,17.77
2018-07-22T02:57:24.926Z,17.88
2018-07-22T02:59:53.017Z,17.66
2018-07-22T03:02:21.107Z,17.69
2018-07-22T03:04:49.185Z,17.64
2018-07-22T03:07:17.296Z,17.62
2018-07-22T03:09:45.421Z,17.48
2018-07-22T03:12:13.512Z,17.45
2018-07-22T03:14:41.614Z,17.42
2018-07-22T03:17:11.853Z,17.37
2018-07-22T03:19:39.964Z,17.48
2018-07-22T03:22:08.115Z,17.44
2018-07-22T03:24:36.253Z,17.43
2018-07-22T03:27:04.351Z,17.40
2018-07-22T03:29:32.428Z,17.29
2018-07-22T03:32:00.490Z,17.33
2018-07-22T03:34:28.589Z,17.23
2018-07-22T03:36:56.664Z,17.39
2018-07-22T03:39:24.758Z,17.50
2018-07-22T03:41:52.851Z,17.45
2018-07-22T03:44:21.406Z,17.57
2018-07-22T03:46:49.531Z,17.69
2018-07-22T03:49:17.626Z,17.65
2018-07-22T03:51:45.684Z,17.58
2018-07-22T03:54:13.776Z,17.50
2018-07-22T03:56:41.870Z,17.62
2018-07-22T03:59:10.201Z,17.60
2018-07-22T04:01:38.475Z,17.57
2018-07-22T04:04:06.614Z,17.55
2018-07-22T04:06:34.664Z,17.48
2018-07-22T04:09:02.784Z,17.42
2018-07-22T04:11:30.866Z,17.42
2018-07-22T04:13:58.975Z,17.37
2018-07-22T04:16:27.291Z,17.35
2018-07-22T04:18:55.372Z,17.38
2018-07-22T04:21:24.489Z,17.37
2018-07-22T04:23:52.568Z,17.31
2018-07-22T04:26:21.456Z,17.33
2018-07-22T04:28:50.028Z,17.38
2018-07-22T04:31:18.206Z,17.53
2018-07-22T04:33:46.348Z,17.51
2018-07-22T04:36:14.411Z,17.60
2018-07-22T04:38:43.066Z,17.57
2018-07-22T04:41:11.155Z,17.60
2018-07-22T04:43:39.231Z,17.76
2018-07-22T04:46:07.371Z,17.85
2018-07-22T04:48:35.459Z,17.75
2018-07-22T04:51:03.571Z,17.70
2018-07-22T04:53:31.667Z,17.71
2018-07-22T04:55:59.730Z,17.72
2018-07-22T04:58:27.848Z,17.83
2018-07-22T05:00:55.927Z,17.91
2018-07-22T05:03:24.023Z,18.12
2018-07-22T05:05:52.163Z,18.14
2018-07-22T05:08:20.327Z,18.19
2018-07-22T05:10:48.587Z,18.10
2018-07-22T05:13:16.661Z,18.27
2018-07-22T05:15:44.747Z,18.39
2018-07-22T05:18:12.831Z,18.54
2018-07-22T05:20:41.080Z,18.63
2018-07-22T05:23:09.241Z,18.64
2018-07-22T05:25:37.345Z,18.71
2018-07-22T05:28:05.435Z,18.76
2018-07-22T05:30:33.514Z,18.72
2018-07-22T05:33:01.587Z,18.86
2018-07-22T05:35:29.683Z,18.93
2018-07-22T05:38:04.168Z,18.93
2018-07-22T05:40:32.287Z,18.97
2018-07-22T05:43:00.383Z,19.02
2018-07-22T05:45:28.487Z,19.02
2018-07-22T05:47:56.568Z,19.13
2018-07-22T05:50:24.679Z,19.15
2018-07-22T05:52:52.775Z,19.23
2018-07-22T05:55:20.940Z,19.41
2018-07-22T05:57:49.094Z,19.62
2018-07-22T06:00:17.385Z,19.94
2018-07-22T06:02:45.462Z,20.06
2018-07-22T06:05:13.996Z,20.04
2018-07-22T06:07:42.282Z,20.04
2018-07-22T06:10:10.631Z,20.00
2018-07-22T06:12:38.719Z,20.27
2018-07-22T06:15:07.895Z,20.33
2018-07-22T06:17:36.057Z,20.11
2018-07-22T06:20:04.458Z,19.86
2018-07-22T06:22:32.558Z,19.82
2018-07-22T06:25:00.653Z,20.02
2018-07-22T06:27:28.724Z,20.26
2018-07-22T06:29:57.123Z,20.43
2018-07-22T06:32:25.241Z,20.22
2018-07-22T06:34:53.326Z,20.26
2018-07-22T06:37:21.418Z,20.25
2018-07-22T06:39:49.526Z,20.15
2018-07-22T06:42:17.617Z,20.23
2018-07-22T06:44:45.705Z,20.18
2018-07-22T06:47:13.772Z,20.42
2018-07-22T06:49:41.868Z,20.45
2018-07-22T06:52:09.948Z,20.79
2018-07-22T06:54:38.173Z,20.83
2018-07-22T06:57:06.258Z,20.80
2018-07-22T06:59:34.358Z,21.01
2018-07-22T07:02:02.455Z,21.18
2018-07-22T07:04:30.539Z,21.33
2018-07-22T07:06:58.619Z,21.41
2018-07-22T07:09:26.710Z,21.45
2018-07-22T07:11:54.786Z,21.14
2018-07-22T07:14:22.983Z,21.10
2018-07-22T07:16:51.080Z,21.01
2018-07-22T07:19:19.174Z,20.97
2018-07-22T07:21:47.279Z,21.20
2018-07-22T07:24:15.347Z,21.48
2018-07-22T07:26:43.437Z,21.62
2018-07-22T07:29:11.491Z,21.47
2018-07-22T07:31:39.784Z,21.62
2018-07-22T07:34:09.849Z,21.55
2018-07-22T07:36:38.403Z,21.21
2018-07-22T07:39:09.324Z,21.54
2018-07-22T07:41:37.621Z,21.71
2018-07-22T07:44:05.705Z,22.02
2018-07-22T07:46:33.811Z,21.99
2018-07-22T07:49:01.904Z,22.06
2018-07-22T07:51:30.081Z,22.34
2018-07-22T07:53:58.230Z,22.36
2018-07-22T07:56:26.368Z,22.46
2018-07-22T07:58:54.493Z,22.58
2018-07-22T08:01:22.611Z,22.66
2018-07-22T08:03:50.754Z,22.83
2018-07-22T08:06:18.794Z,23.00
2018-07-22T08:08:46.867Z,23.13
2018-07-22T08:11:14.967Z,23.14
2018-07-22T08:13:43.239Z,23.24
2018-07-22T08:16:11.331Z,23.26
2018-07-22T08:18:39.434Z,23.32
2018-07-22T08:21:07.572Z,23.37
2018-07-22T08:23:35.667Z,23.26
2018-07-22T08:26:03.814Z,23.52
2018-07-22T08:28:43.028Z,23.73
2018-07-22T08:31:11.221Z,23.85
2018-07-22T08:33:39.319Z,23.96
2018-07-22T08:36:07.431Z,24.01
2018-07-22T08:38:35.582Z,24.03
2018-07-22T08:41:03.663Z,24.02
2018-07-22T08:43:31.764Z,24.17
2018-07-22T08:45:59.853Z,24.24
2018-07-22T08:48:28.028Z,24.10
2018-07-22T08:50:56.188Z,24.19
2018-07-22T08:53:24.274Z,24.28
2018-07-22T08:55:52.372Z,23.99
2018-07-22T08:58:20.496Z,24.36
2018-07-22T09:00:48.686Z,24.48
2018-07-22T09:03:16.788Z,24.49
2018-07-22T09:05:45.050Z,24.23
2018-07-22T09:08:13.151Z,24.53
2018-07-22T09:10:41.187Z,24.72
2018-07-22T09:13:09.409Z,24.78
2018-07-22T09:15:37.689Z,24.87
2018-07-22T09:18:05.936Z,24.53
2018-07-22T09:20:33.972Z,24.21
2018-07-22T09:23:02.079Z,24.49
2018-07-22T09:25:30.196Z,24.75
2018-07-22T09:27:58.295Z,25.00
2018-07-22T09:30:26.396Z,24.82
2018-07-22T09:32:54.500Z,24.98
2018-07-22T09:35:25.270Z,24.72
2018-07-22T09:37:53.360Z,25.10
2018-07-22T09:40:21.476Z,25.24
2018-07-22T09:42:49.592Z,25.26
2018-07-22T09:45:17.699Z,25.47
2018-07-22T09:47:52.721Z,25.54
2018-07-22T09:50:20.915Z,25.68
2018-07-22T09:52:50.360Z,25.89
2018-07-22T09:55:18.559Z,26.03
2018-07-22T09:57:46.825Z,26.27
2018-07-22T10:00:19.243Z,26.43
2018-07-22T10:02:48.212Z,26.61
2018-07-22T10:05:16.585Z,26.66
2018-07-22T10:07:44.791Z,26.73
2018-07-22T10:10:12.976Z,26.83
2018-07-22T10:12:41.300Z,27.02
2018-07-22T10:15:10.149Z,27.04
2018-07-22T10:17:38.532Z,26.87
2018-07-22T10:20:07.032Z,26.80
2018-07-22T10:22:35.431Z,26.76
2018-07-22T10:25:03.603Z,26.88
2018-07-22T10:27:31.739Z,26.76
2018-07-22T10:29:59.836Z,26.64
2018-07-22T10:32:28.073Z,26.78
2018-07-22T10:34:56.172Z,27.03
2018-07-22T10:37:24.266Z,27.02
2018-07-22T10:39:52.737Z,27.05
2018-07-22T10:42:21.781Z,26.86
2018-07-22T10:44:51.474Z,26.81
2018-07-22T10:47:19.624Z,26.53
2018-07-22T10:49:47.839Z,26.53
2018-07-22T10:52:16.034Z,26.85
2018-07-22T10:54:44.131Z,26.95
2018-07-22T10:57:12.381Z,27.04
2018-07-22T10:59:40.787Z,27.33
2018-07-22T11:02:09.059Z,27.59
2018-07-22T11:04:37.281Z,27.63
2018-07-22T11:07:05.517Z,27.63
2018-07-22T11:09:33.700Z,27.56
2018-07-22T11:12:01.916Z,27.60
2018-07-22T11:14:30.048Z,27.68
2018-07-22T11:16:58.344Z,27.74
2018-07-22T11:19:26.456Z,27.73
2018-07-22T11:21:54.552Z,27.78
2018-07-22T11:24:22.657Z,28.05
2018-07-22T11:26:50.747Z,27.93
2018-07-22T11:29:18.816Z,27.98
2018-07-22T11:31:46.906Z,28.05
2018-07-22T11:34:15.003Z,28.03
2018-07-22T11:36:43.130Z,28.10
2018-07-22T11:39:12.262Z,28.15
2018-07-22T11:41:40.929Z,28.20
2018-07-22T11:44:09.661Z,28.08
2018-07-22T11:46:38.755Z,28.06
2018-07-22T11:49:07.328Z,28.09
2018-07-22T11:51:35.723Z,28.30
2018-07-22T11:54:04.017Z,28.57
2018-07-22T11:56:32.122Z,28.46
2018-07-22T11:59:00.211Z,28.81
2018-07-22T12:01:28.412Z,28.84
2018-07-22T12:03:56.439Z,28.79
2018-07-22T12:06:24.612Z,28.91
2018-07-22T12:08:52.696Z,29.04
2018-07-22T12:11:20.823Z,28.96
2018-07-22T12:13:48.945Z,28.88
2018-07-22T12:16:16.994Z,28.95
2018-07-22T12:18:45.075Z,29.05
2018-07-22T12:21:13.161Z,29.01
2018-07-22T12:23:41.247Z,28.77
2018-07-22T12:26:09.358Z,28.97
2018-07-22T12:28:37.427Z,29.12
2018-07-22T12:31:05.503Z,29.04
2018-07-22T12:33:33.588Z,28.97
2018-07-22T12:36:01.660Z,28.76
2018-07-22T12:38:29.734Z,28.62
2018-07-22T12:40:57.851Z,28.60
2018-07-22T12:43:25.920Z,28.47
2018-07-22T12:45:54.115Z,28.27
2018-07-22T12:48:22.252Z,28.15
2018-07-22T12:50:50.329Z,27.79
2018-07-22T12:53:18.467Z,27.09
2018-07-22T12:55:46.539Z,26.49
2018-07-22T12:58:14.714Z,25.99
2018-07-22T13:00:42.882Z,25.91
2018-07-22T13:03:10.984Z,25.67
2018-07-22T13:05:39.067Z,25.86
2018-07-22T13:08:07.525Z,25.71
2018-07-22T13:10:35.603Z,25.72
2018-07-22T13:13:03.699Z,25.81
2018-07-22T13:15:31.811Z,25.38
2018-07-22T13:17:59.918Z,25.56
2018-07-22T13:20:28.015Z,25.52
2018-07-22T13:22:56.144Z,25.56
2018-07-22T13:25:24.229Z,25.32
2018-07-22T13:27:52.595Z,25.37
2018-07-22T13:30:20.693Z,25.57
2018-07-22T13:32:48.803Z,25.70
2018-07-22T13:35:16.917Z,25.88
2018-07-22T13:37:44.996Z,26.12
2018-07-22T13:40:13.084Z,25.98
2018-07-22T13:42:41.180Z,25.79
2018-07-22T13:45:09.359Z,25.79
2018-07-22T13:47:37.483Z,26.09
2018-07-22T13:50:05.682Z,26.12
2018-07-22T13:52:33.870Z,25.98
2018-07-22T13:55:01.975Z,26.01
2018-07-22T13:57:30.220Z,26.01
2018-07-22T13:59:58.332Z,25.55
2018-07-22T14:02:26.519Z,25.30
2018-07-22T14:04:54.632Z,25.04
2018-07-22T14:07:22.787Z,24.87
2018-07-22T14:09:51.033Z,24.88
2018-07-22T14:12:19.708Z,24.57
2018-07-22T14:14:48.574Z,24.68
2018-07-22T14:17:17.059Z,24.57
2018-07-22T14:19:45.689Z,24.42
2018-07-22T14:22:14.175Z,24.20
2018-07-22T14:24:42.316Z,23.60
2018-07-22T14:27:11.816Z,23.83
2018-07-22T14:29:40.338Z,24.01
2018-07-22T14:32:08.607Z,23.80
2018-07-22T14:34:36.755Z,23.52
2018-07-22T14:37:05.003Z,23.46
2018-07-22T14:39:33.276Z,23.45
2018-07-22T14:42:01.503Z,23.49
2018-07-22T14:44:30.865Z,23.49
2018-07-22T14:46:59.388Z,23.52
2018-07-22T14:49:27.678Z,23.36
2018-07-22T14:51:56.389Z,23.28
2018-07-22T14:54:24.821Z,23.24
2018-07-22T14:56:53.858Z,23.15
2018-07-22T14:59:22.313Z,23.24
2018-07-22T15:01:50.751Z,23.31
2018-07-22T15:04:40.456Z,23.35
2018-07-22T15:07:08.780Z,23.48
2018-07-22T15:09:37.914Z,23.51
2018-07-22T15:12:06.334Z,23.30
2018-07-22T15:14:34.712Z,23.41
2018-07-22T15:17:02.961Z,23.49
2018-07-22T15:19:31.147Z,23.47
2018-07-22T15:22:00.205Z,23.33
2018-07-22T15:24:28.449Z,23.65
2018-07-22T15:26:57.578Z,23.99
2018-07-22T15:29:26.274Z,24.26
2018-07-22T15:31:54.724Z,24.35
2018-07-22T15:34:22.949Z,24.40
2018-07-22T15:36:51.087Z,24.40
2018-07-22T15:39:19.254Z,24.49
2018-07-22T15:41:47.349Z,24.67
2018-07-22T15:44:15.505Z,24.65
2018-07-22T15:46:43.598Z,24.54
2018-07-22T15:49:11.722Z,24.65
2018-07-22T15:51:39.841Z,24.49
2018-07-22T15:54:08.024Z,24.56
2018-07-22T15:56:36.239Z,24.52
2018-07-22T15:59:04.415Z,24.48
2018-07-22T16:01:33.847Z,24.41
2018-07-22T16:04:01.976Z,24.41
2018-07-22T16:06:30.144Z,24.40
2018-07-22T16:08:58.611Z,24.43
2018-07-22T16:11:26.996Z,24.33
2018-07-22T16:13:55.203Z,24.62
2018-07-22T16:16:59.802Z,24.44
2018-07-22T16:19:27.883Z,24.67
2018-07-22T16:21:56.012Z,24.39
2018-07-22T16:24:24.135Z,24.48
2018-07-22T16:26:52.200Z,24.63
2018-07-22T16:29:20.415Z,24.64
2018-07-22T16:31:48.569Z,24.50
2018-07-22T16:34:16.724Z,24.54
2018-07-22T16:36:46.809Z,24.65
2018-07-22T16:39:14.899Z,24.52
2018-07-22T16:41:43.657Z,24.63
2018-07-22T16:44:11.848Z,24.80
2018-07-22T16:46:40.083Z,24.91
2018-07-22T16:49:08.166Z,24.93
2018-07-22T16:51:43.604Z,24.59
2018-07-22T16:54:11.715Z,24.51
2018-07-22T16:56:39.823Z,24.66
2018-07-22T16:59:07.958Z,24.72
2018-07-22T17:01:36.067Z,24.83
2018-07-22T17:04:04.267Z,24.87
2018-07-22T17:09:28.465Z,25.06
2018-07-22T17:11:56.616Z,24.90
2018-07-22T17:14:24.723Z,24.99
2018-07-22T17:16:52.807Z,25.14
2018-07-22T17:19:21.035Z,25.19
2018-07-22T17:21:49.279Z,25.22
2018-07-22T17:24:18.399Z,25.20
2018-07-22T17:26:46.551Z,24.92
2018-07-22T17:29:14.672Z,24.65
2018-07-22T17:31:42.743Z,24.57
2018-07-22T17:34:10.879Z,24.42
2018-07-22T17:36:39.040Z,24.50
2018-07-22T17:39:08.855Z,24.59
2018-07-22T17:41:37.106Z,24.63
2018-07-22T17:44:05.504Z,24.73
2018-07-22T17:46:33.820Z,24.88
2018-07-22T17:49:02.051Z,24.98
2018-07-22T17:51:30.160Z,24.76
2018-07-22T17:53:58.262Z,24.62
2018-07-22T17:56:26.572Z,24.40
2018-07-22T17:58:54.677Z,24.34
2018-07-22T18:01:22.804Z,24.38
2018-07-22T18:03:50.876Z,24.38
2018-07-22T18:06:18.978Z,24.24
2018-07-22T18:08:47.552Z,24.14
2018-07-22T18:11:15.790Z,23.96
2018-07-22T18:13:44.540Z,23.87
2018-07-22T18:16:12.736Z,23.71
2018-07-22T18:18:42.093Z,23.72
2018-07-22T18:21:12.127Z,23.75
2018-07-22T18:23:40.293Z,23.56
2018-07-22T18:26:09.443Z,23.39
2018-07-22T18:28:37.847Z,23.47
2018-07-22T18:31:06.044Z,23.63
2018-07-22T18:33:34.534Z,23.69
2018-07-22T18:36:03.975Z,23.60
2018-07-22T18:38:32.952Z,23.48
2018-07-22T18:41:03.331Z,23.38
2018-07-22T18:43:32.280Z,23.52
2018-07-22T18:46:01.439Z,23.57
2018-07-22T18:48:30.119Z,23.69
2018-07-22T18:50:59.845Z,23.76
2018-07-22T18:53:28.048Z,23.67
2018-07-22T18:55:56.235Z,23.51
2018-07-22T18:58:24.568Z,23.39
2018-07-22T19:00:52.810Z,23.42
2018-07-22T19:03:21.847Z,23.50
2018-07-22T19:05:50.068Z,23.38
2018-07-22T19:08:18.234Z,23.25
2018-07-22T19:10:46.432Z,23.20
2018-07-22T19:13:14.730Z,23.07
2018-07-22T19:15:42.878Z,23.16
2018-07-22T19:18:11.095Z,23.18
2018-07-22T19:20:39.403Z,22.89
2018-07-22T19:23:08.360Z,22.74
2018-07-22T19:25:36.814Z,22.77
2018-07-22T19:28:05.985Z,22.87
2018-07-22T19:30:34.170Z,22.89
2018-07-22T19:33:02.347Z,22.87
2018-07-22T19:35:30.480Z,22.87
2018-07-22T19:37:59.411Z,22.66
2018-07-22T19:40:27.607Z,22.76
2018-07-22T19:43:30.608Z,22.85
2018-07-22T19:46:16.887Z,22.75
2018-07-22T19:48:45.189Z,22.58
2018-07-22T19:51:14.699Z,22.36
2018-07-22T19:53:43.801Z,22.18
2018-07-22T19:56:23.656Z,22.16
2018-07-22T19:58:54.800Z,22.44
2018-07-22T20:01:22.937Z,22.47
2018-07-22T20:03:52.794Z,22.47
2018-07-22T20:06:21.386Z,22.47
2018-07-22T20:08:50.550Z,22.42
2018-07-22T20:11:21.061Z,22.34
2018-07-22T20:16:37.306Z,22.50
2018-07-22T20:19:37.966Z,22.52
2018-07-22T20:22:15.340Z,22.39
2018-07-22T20:24:55.005Z,22.40
2018-07-22T20:28:04.139Z,22.52
2018-07-22T20:30:47.717Z,22.44
2018-07-22T20:33:17.622Z,22.27
2018-07-22T20:36:21.258Z,22.12
2018-07-22T20:39:22.325Z,22.22
2018-07-22T20:41:54.589Z,22.25
2018-07-22T20:44:38.630Z,22.27
2018-07-22T20:47:09.179Z,21.97
2018-07-22T20:58:26.973Z,21.67
2018-07-22T21:03:27.331Z,21.58
2018-07-22T21:05:57.948Z,21.40
2018-07-22T21:08:29.706Z,21.51
2018-07-22T21:11:03.118Z,21.57
2018-07-22T21:13:35.267Z,21.47
2018-07-22T21:16:04.976Z,21.46
2018-07-22T21:18:33.737Z,21.45
2018-07-22T21:21:03.684Z,21.46
2018-07-22T21:23:33.665Z,21.34
2018-07-22T21:26:04.587Z,21.39
2018-07-22T21:28:35.031Z,21.41
2018-07-22T21:31:07.310Z,21.36
2018-07-22T21:36:26.196Z,21.50
2018-07-22T21:39:05.468Z,21.45
2018-07-22T21:41:34.226Z,21.40
2018-07-22T21:44:04.729Z,21.34
2018-07-22T21:46:33.302Z,21.17
2018-07-22T21:49:06.370Z,21.19
2018-07-22T21:54:22.956Z,21.13
2018-07-22T21:56:51.107Z,21.07
2018-07-22T21:59:23.488Z,21.02
2018-07-22T22:02:04.670Z,20.97
2018-07-22T22:04:41.542Z,20.98
2018-07-22T22:07:34.824Z,20.92
2018-07-22T22:10:08.407Z,20.88
2018-07-22T22:12:37.115Z,20.85
2018-07-22T22:15:15.920Z,20.90
2018-07-22T22:17:45.878Z,20.86
2018-07-22T22:20:23.256Z,20.82
2018-07-22T22:22:55.386Z,20.70
2018-07-22T22:25:23.527Z,20.73
2018-07-22T22:27:51.731Z,20.68
2018-07-22T22:30:21.737Z,20.64
2018-07-22T22:33:04.244Z,20.65
2018-07-22T22:35:39.364Z,20.56
2018-07-22T22:38:27.463Z,20.55
2018-07-22T22:41:15.829Z,20.54
2018-07-22T22:46:22.646Z,20.33
2018-07-22T22:48:53.355Z,20.19
2018-07-22T22:51:21.649Z,20.03
2018-07-22T22:53:54.223Z,19.94
2018-07-22T22:56:24.281Z,19.84
2018-07-22T22:59:03.768Z,19.95
2018-07-22T23:01:32.682Z,19.92
2018-07-22T23:04:00.755Z,19.81
2018-07-22T23:06:28.886Z,19.69
2018-07-22T23:08:56.966Z,19.73
2018-07-22T23:11:25.063Z,19.71
2018-07-22T23:13:53.153Z,19.71
2018-07-22T23:16:21.247Z,19.77
2018-07-22T23:18:49.385Z,19.81
2018-07-22T23:21:17.487Z,19.89
2018-07-22T23:23:45.670Z,19.79
2018-07-22T23:26:13.772Z,19.60
2018-07-22T23:28:41.867Z,19.66
2018-07-22T23:31:09.961Z,19.53
2018-07-22T23:33:38.079Z,19.49
2018-07-22T23:36:06.186Z,19.51
2018-07-22T23:38:34.275Z,19.54
2018-07-22T23:41:02.363Z,19.54
2018-07-22T23:43:30.459Z,19.55
2018-07-22T23:45:58.546Z,19.58
2018-07-22T23:48:26.636Z,19.47
2018-07-22T23:50:54.724Z,19.43
2018-07-22T23:53:22.826Z,19.39
2018-07-22T23:55:50.898Z,19.39
2018-07-22T23:58:19.014Z,19.26
